Latest Coastal Weather Observations for Arlington Reef

IDQ60701

Issued at 6:21 am EST Friday 19 December 2014 (issued every 10 minutes, with the page automatically refreshed every 10 minutes)

About coastal observations | Map of coastal stations | Coastal observations for QLD | Marine services | Other Formats
Station Details ID: 200879 Name: ARLINGTON REEF Lat: -16.72 Lon: 146.11 Height: 0.0 m
Data from the previous 72 hours. | See also: Recent months at Arlington Reef
Date/Time
EST
Temp

°C
Wind Pressure Rain
since 9am
mm
Weather Cloud Vis
km
Sea
Height
m
Swell
Dir
 
Speed
knots
Gust
knots
hPa Trend Height
m
Period
s
Dir
19/06:00am - NE 4 7 1011.0 - - - - - - - - -
19/05:30am - ENE 8 10 1010.3 - - - - - - - - -
19/05:00am - ENE 8 10 1010.1 - - - - - - - - -
19/04:30am - E 8 11 1010.1 - - - - - - - - -
19/04:00am - E 9 10 1010.0 - - - - - - - - -
19/03:30am - E 11 14 1010.0 - - - - - - - - -
19/03:00am - ESE 7 8 1010.4 - - - - - - - - -
19/02:30am - SE 5 7 1010.8 - - - - - - - - -
19/02:00am - SSE 4 6 1011.4 - - - - - - - - -
19/01:30am - SE 3 4 1011.6 - - - - - - - - -
19/01:00am - ESE 4 6 1011.4 - - - - - - - - -
19/12:30am - ESE 3 4 1011.7 - - - - - - - - -
19/12:00am - E 5 6 1011.7 - - - - - - - - -
 
Date/Time
EST
Temp

°C
Wind Pressure Rain
since 9am
mm
Weather Cloud Vis
km
Sea
Height
m
Swell
Dir
 
Speed
knots
Gust
knots
hPa Trend Height
m
Period
s
Dir
18/11:30pm - ENE 4 6 1011.7 - - - - - - - - -
18/11:00pm - ENE 3 5 1012.0 - - - - - - - - -
18/10:30pm - E 5 7 1011.7 - - - - - - - - -
18/10:00pm - E 4 5 1011.7 - - - - - - - - -
18/09:30pm - E 4 6 1011.4 - - - - - - - - -
18/09:00pm - E 4 5 1011.2 - - - - - - - - -
18/08:30pm - E 3 5 1011.3 - - - - - - - - -
18/08:00pm - NE 3 4 1010.9 - - - - - - - - -
18/07:30pm - NNE 4 6 1010.5 - - - - - - - - -
18/07:00pm - NE 3 6 1010.1 - - - - - - - - -
18/06:30pm - NE 4 7 1009.4 - - - - - - - - -
18/06:00pm - NNE 5 8 1009.0 - - - - - - - - -
18/05:30pm - NE 5 7 1008.9 - - - - - - - - -
18/05:00pm - NNE 7 9 1008.8 - - - - - - - - -
18/04:30pm - NE 5 8 1008.6 - - - - - - - - -
18/04:00pm - NE 8 9 1008.9 - - - - - - - - -
18/03:30pm - NNE 5 8 1009.3 - - - - - - - - -
18/03:00pm - NE 6 9 1009.7 - - - - - - - - -
18/02:30pm - NE 4 7 1010.1 - - - - - - - - -
18/02:00pm - NNE 5 7 1010.2 - - - - - - - - -
18/01:30pm - N 3 4 1010.7 - - - - - - - - -
18/01:00pm - NNE 3 5 1011.2 - - - - - - - - -
18/12:30pm - NNE 3 4 1011.4 - - - - - - - - -
18/12:00pm - NNE 3 4 1011.5 - - - - - - - - -
18/11:30am - NNE 3 3 1011.8 - - - - - - - - -
18/11:00am - NNE 3 5 1012.0 - - - - - - - - -
18/10:30am - NNE 4 6 1012.1 - - - - - - - - -
18/10:00am - NNE 3 5 1012.2 - - - - - - - - -
18/09:30am - NNW 3 4 1012.3 - - - - - - - - -
18/09:00am - N 4 6 1012.2 - - - - - - - - -
18/08:30am - N 3 5 1012.3 - - - - - - - - -
18/08:00am - N 3 5 1012.2 - - - - - - - - -
18/07:30am - NNE 3 6 1012.1 - - - - - - - - -
18/07:00am - N 4 6 1011.9 - - - - - - - - -
18/06:30am - NNE 3 5 1011.5 - - - - - - - - -
18/06:00am - NNE 3 6 1011.1 - - - - - - - - -
18/05:30am - NE 4 5 1010.4 - - - - - - - - -
18/05:00am - NNE 4 6 1010.1 - - - - - - - - -
18/04:30am - NE 2 3 1009.8 - - - - - - - - -
18/04:00am - NE 4 5 1009.6 - - - - - - - - -
18/03:30am - NE 3 5 1009.4 - - - - - - - - -
18/03:00am - NNE 3 5 1009.3 - - - - - - - - -
18/02:30am - NNE 4 7 1009.1 - - - - - - - - -
18/02:00am - NNE 5 8 1009.0 - - - - - - - - -
18/01:30am - NNE 6 8 1009.1 - - - - - - - - -
18/01:00am - NNE 7 10 1009.3 - - - - - - - - -
18/12:30am - NNE 5 8 1010.1 - - - - - - - - -
18/12:00am - NE 5 8 1010.6 - - - - - - - - -
 
Date/Time
EST
Temp

°C
Wind Pressure Rain
since 9am
mm
Weather Cloud Vis
km
Sea
Height
m
Swell
Dir
 
Speed
knots
Gust
knots
hPa Trend Height
m
Period
s
Dir
17/11:30pm - NE 5 8 1010.8 - - - - - - - - -
17/11:00pm - NE 5 8 1010.9 - - - - - - - - -
17/10:30pm - NE 4 7 1011.0 - - - - - - - - -
17/10:00pm - NE 3 5 1010.6 - - - - - - - - -
17/09:30pm - ENE 4 6 1010.2 - - - - - - - - -
17/09:00pm - ENE 6 8 1009.2 - - - - - - - - -
17/08:30pm - NE 7 9 1008.9 - - - - - - - - -
17/08:00pm - NE 7 9 1008.8 - - - - - - - - -
17/07:30pm - NE 5 7 1008.7 - - - - - - - - -
17/07:00pm - NE 7 9 1008.3 - - - - - - - - -
17/06:30pm - NE 8 10 1008.0 - - - - - - - - -
17/06:00pm - NE 8 9 1007.8 - - - - - - - - -
17/05:30pm - NE 8 10 1007.7 - - - - - - - - -
17/05:00pm - NE 8 10 1007.6 - - - - - - - - -
17/04:30pm - NE 9 10 1007.7 - - - - - - - - -
17/04:00pm - NE 9 12 1007.5 - - - - - - - - -
17/03:30pm - ENE 9 11 1007.6 - - - - - - - - -
17/03:00pm - NE 8 10 1007.9 - - - - - - - - -
17/02:30pm - NE 8 10 1008.1 - - - - - - - - -
17/02:00pm - NE 7 9 1008.5 - - - - - - - - -
17/01:30pm - NE 7 10 1008.6 - - - - - - - - -
17/01:00pm - NE 5 8 1009.0 - - - - - - - - -
17/12:30pm - NE 5 7 1009.4 - - - - - - - - -
17/12:00pm - NE 4 5 1009.8 - - - - - - - - -
17/11:30am - NE 3 6 1010.1 - - - - - - - - -
17/11:00am - NE 2 4 1010.4 - - - - - - - - -
17/10:30am - N 2 3 1010.5 - - - - - - - - -
17/10:00am - NNE 3 4 1010.4 - - - - - - - - -
17/09:30am - N 2 3 1010.5 - - - - - - - - -
17/09:00am - N 2 3 1010.4 - - - - - - - - -
17/08:30am - NE 1 2 1010.3 - - - - - - - - -
17/08:00am - NE 1 3 1010.2 - - - - - - - - -
17/07:30am - NNE 1 4 1009.9 - - - - - - - - -
17/07:00am - NE 3 5 1009.6 - - - - - - - - -
17/06:30am - NNE 3 4 1009.5 - - - - - - - - -
17/06:00am - NNE 3 5 1009.0 - - - - - - - - -
17/05:30am - NNE 3 5 1008.5 - - - - - - - - -
17/05:00am - NE 4 5 1008.2 - - - - - - - - -
17/04:30am - NNE 3 5 1008.0 - - - - - - - - -
17/04:00am - NNE 4 5 1007.7 - - - - - - - - -
17/03:30am - NE 5 6 1007.6 - - - - - - - - -
17/03:00am - NE 4 5 1007.7 - - - - - - - - -
17/02:30am - NE 5 6 1007.7 - - - - - - - - -
17/02:00am - NE 4 6 1008.0 - - - - - - - - -
17/01:30am - NE 4 6 1008.2 - - - - - - - - -
17/01:00am - NE 5 8 1008.6 - - - - - - - - -
17/12:30am - NE 5 7 1009.0 - - - - - - - - -
17/12:00am - NE 5 6 1009.4 - - - - - - - - -
 
Date/Time
EST
Temp

°C
Wind Pressure Rain
since 9am
mm
Weather Cloud Vis
km
Sea
Height
m
Swell
Dir
 
Speed
knots
Gust
knots
hPa Trend Height
m
Period
s
Dir
16/11:30pm - NE 5 6 1009.7 - - - - - - - - -
16/11:00pm - NE 6 8 1009.8 - - - - - - - - -
16/10:30pm - ENE 7 9 1010.2 - - - - - - - - -
16/10:00pm - ENE 6 7 1010.2 - - - - - - - - -
16/09:30pm - NE 6 8 1009.8 - - - - - - - - -
16/09:00pm - ENE 5 7 1009.7 - - - - - - - - -
16/08:30pm - E 5 7 1009.3 - - - - - - - - -
16/08:00pm - ENE 6 8 1009.0 - - - - - - - - -
16/07:30pm - NE 6 8 1008.8 - - - - - - - - -
16/07:00pm - ENE 8 10 1008.7 - - - - - - - - -
16/06:30pm - ENE 8 12 1008.5 - - - - - - - - -
16/06:00pm - ENE 10 12 1008.1 - - - - - - - - -
16/05:30pm - ENE 10 12 1008.0 - - - - - - - - -
16/05:00pm - ENE 10 12 1008.0 - - - - - - - - -
16/04:30pm - ENE 10 12 1007.9 - - - - - - - - -
16/04:00pm - ENE 7 9 1008.1 - - - - - - - - -
16/03:30pm - E 8 9 1008.3 - - - - - - - - -
16/03:00pm - ENE 9 11 1008.3 - - - - - - - - -
16/02:30pm - ENE 7 8 1008.6 - - - - - - - - -
16/02:00pm - ENE 7 9 1009.0 - - - - - - - - -
16/01:30pm - E 6 9 1009.4 - - - - - - - - -
16/01:00pm - ENE 6 8 1009.8 - - - - - - - - -
16/12:30pm - ENE 5 7 1010.2 - - - - - - - - -
16/12:00pm - ENE 5 6 1010.6 - - - - - - - - -
16/11:30am - ENE 4 5 1010.9 - - - - - - - - -
16/11:00am - ENE 4 5 1011.1 - - - - - - - - -
16/10:30am - ENE 4 5 1011.4 - - - - - - - - -
16/10:00am - ENE 5 7 1011.7 - - - - - - - - -
16/09:30am - E 5 6 1011.9 - - - - - - - - -
16/09:00am - E 6 8 1011.9 - - - - - - - - -
16/08:30am - E 8 9 1011.8 - - - - - - - - -
16/08:00am - ENE 7 8 1011.7 - - - - - - - - -
16/07:30am - ENE 7 8 1011.3 - - - - - - - - -
16/07:00am - NE 7 9 1011.0 - - - - - - - - -
16/06:30am - NE 7 8 1010.5 - - - - - - - - -

Other Formats:

Comma delimited format used in spreadsheet applications
http://www.bom.gov.au/fwo/IDQ60701/IDQ60701.94284.axf

JavaScript Object Notation format (JSON) in row-major order
http://www.bom.gov.au/fwo/IDQ60701/IDQ60701.94284.json